Lawrenceport, Indiana
Current Conditions -  °F | °C
As of 8:21 PM on Thursday 27 Nov 2014 (Local Time) from KBMG Reporting Station
Light Snow Light Snow  
Wind Chill: 18°   Ceiling: 3800
Heat Index: 26°   Visibility: 4mi
Dew Point: 21°   Wind: 8mph
Humidity: 81%   Direction: 280°W
Pressure: 30.41"   Gusts: NA
Location:  38.7366°N, 86.4546°W
Report Text: KBMG 280121Z 28007KT 4SM -SN FEW018 FEW028 OVC038 M03/M06 A3041 RMK AO2 P0000 T10331061
Loading
Personal Weather Stations






























Interactive Weather Map New forecast layout! Learn more

10-Day Weather Forecast

Advertisements
Track Severe Weather on mobile